sensor_id;sensor_type;location;lat;lon;timestamp;pressure;altitude;pressure_sealevel;temperature;humidity
48862;BME280;34681;49.188;-0.374;2022-11-02T00:00:43;101619.59;;;13.57;71.41
48862;BME280;34681;49.188;-0.374;2022-11-02T00:03:09;101615.03;;;13.95;70.65
48862;BME280;34681;49.188;-0.374;2022-11-02T00:05:35;101614.44;;;14.11;70.55
48862;BME280;34681;49.188;-0.374;2022-11-02T00:08:00;101618.72;;;14.32;70.12
48862;BME280;34681;49.188;-0.374;2022-11-02T00:10:27;101625.81;;;14.35;70.12
48862;BME280;34681;49.188;-0.374;2022-11-02T00:12:54;101623.97;;;14.63;69.21
48862;BME280;34681;49.188;-0.374;2022-11-02T00:15:19;101630.63;;;14.70;68.71
48862;BME280;34681;49.188;-0.374;2022-11-02T00:17:47;101641.63;;;14.70;68.59
48862;BME280;34681;49.188;-0.374;2022-11-02T00:20:16;101633.25;;;14.62;68.38
48862;BME280;34681;49.188;-0.374;2022-11-02T00:22:43;101625.50;;;14.38;69.14
48862;BME280;34681;49.188;-0.374;2022-11-02T00:25:10;101624.34;;;14.31;69.30
48862;BME280;34681;49.188;-0.374;2022-11-02T00:27:37;101630.16;;;14.28;69.19
48862;BME280;34681;49.188;-0.374;2022-11-02T00:30:04;101630.97;;;14.01;69.75
48862;BME280;34681;49.188;-0.374;2022-11-02T00:32:29;101648.75;;;14.06;70.04
48862;BME280;34681;49.188;-0.374;2022-11-02T00:34:55;101650.34;;;14.09;69.61
48862;BME280;34681;49.188;-0.374;2022-11-02T00:37:20;101656.28;;;14.04;69.84
48862;BME280;34681;49.188;-0.374;2022-11-02T00:39:46;101654.75;;;13.83;70.53
48862;BME280;34681;49.188;-0.374;2022-11-02T00:42:11;101658.78;;;13.88;70.51
48862;BME280;34681;49.188;-0.374;2022-11-02T00:44:36;101658.16;;;14.14;69.22
48862;BME280;34681;49.188;-0.374;2022-11-02T00:47:02;101664.53;;;14.04;69.66
48862;BME280;34681;49.188;-0.374;2022-11-02T00:49:27;101664.41;;;14.16;69.12
48862;BME280;34681;49.188;-0.374;2022-11-02T00:51:53;101667.47;;;13.93;69.51
48862;BME280;34681;49.188;-0.374;2022-11-02T00:54:18;101669.78;;;13.88;69.58
48862;BME280;34681;49.188;-0.374;2022-11-02T00:56:43;101669.34;;;13.93;69.14
48862;BME280;34681;49.188;-0.374;2022-11-02T00:59:09;101672.25;;;13.91;69.33
48862;BME280;34681;49.188;-0.374;2022-11-02T01:01:34;101674.09;;;14.10;69.17
48862;BME280;34681;49.188;-0.374;2022-11-02T01:04:00;101682.66;;;14.17;68.61
48862;BME280;34681;49.188;-0.374;2022-11-02T01:06:25;101678.16;;;14.16;69.01
48862;BME280;34681;49.188;-0.374;2022-11-02T01:08:50;101684.78;;;14.32;68.44
48862;BME280;34681;49.188;-0.374;2022-11-02T01:11:19;101683.50;;;14.27;68.55
48862;BME280;34681;49.188;-0.374;2022-11-02T01:13:45;101686.13;;;14.19;68.49
48862;BME280;34681;49.188;-0.374;2022-11-02T01:16:11;101693.34;;;14.20;68.10
48862;BME280;34681;49.188;-0.374;2022-11-02T01:18:38;101686.25;;;14.27;67.74
48862;BME280;34681;49.188;-0.374;2022-11-02T01:21:03;101693.94;;;14.04;68.21
48862;BME280;34681;49.188;-0.374;2022-11-02T01:23:33;101695.25;;;13.81;68.81
48862;BME280;34681;49.188;-0.374;2022-11-02T01:26:07;101698.03;;;14.00;68.40
48862;BME280;34681;49.188;-0.374;2022-11-02T01:28:33;101693.09;;;13.94;68.53
48862;BME280;34681;49.188;-0.374;2022-11-02T01:30:59;101700.31;;;14.04;68.05
48862;BME280;34681;49.188;-0.374;2022-11-02T01:33:25;101707.72;;;14.04;67.87
48862;BME280;34681;49.188;-0.374;2022-11-02T01:35:51;101699.59;;;14.02;68.03
48862;BME280;34681;49.188;-0.374;2022-11-02T01:38:17;101709.91;;;14.00;68.12
48862;BME280;34681;49.188;-0.374;2022-11-02T01:40:42;101709.03;;;13.90;68.32
48862;BME280;34681;49.188;-0.374;2022-11-02T01:43:22;101708.16;;;13.90;68.34
48862;BME280;34681;49.188;-0.374;2022-11-02T01:45:51;101713.78;;;13.98;67.97
48862;BME280;34681;49.188;-0.374;2022-11-02T01:48:22;101719.16;;;13.80;68.65
48862;BME280;34681;49.188;-0.374;2022-11-02T01:50:50;101719.44;;;13.67;69.07
48862;BME280;34681;49.188;-0.374;2022-11-02T01:53:16;101708.75;;;13.74;68.86
48862;BME280;34681;49.188;-0.374;2022-11-02T01:55:41;101717.97;;;13.54;69.44
48862;BME280;34681;49.188;-0.374;2022-11-02T01:58:09;101718.28;;;13.60;69.55
48862;BME280;34681;49.188;-0.374;2022-11-02T02:00:36;101715.22;;;13.63;69.05
48862;BME280;34681;49.188;-0.374;2022-11-02T02:03:11;101722.91;;;13.69;68.93
48862;BME280;34681;49.188;-0.374;2022-11-02T02:05:44;101712.31;;;13.45;69.59
48862;BME280;34681;49.188;-0.374;2022-11-02T02:08:13;101711.31;;;13.46;69.55
48862;BME280;34681;49.188;-0.374;2022-11-02T02:10:40;101718.56;;;13.57;69.09
48862;BME280;34681;49.188;-0.374;2022-11-02T02:13:06;101718.97;;;13.33;69.77
48862;BME280;34681;49.188;-0.374;2022-11-02T02:18:45;101734.63;;;13.12;70.36
48862;BME280;34681;49.188;-0.374;2022-11-02T02:22:34;101734.84;;;13.30;69.95
48862;BME280;34681;49.188;-0.374;2022-11-02T02:24:57;101734.84;;;13.30;69.89
48862;BME280;34681;49.188;-0.374;2022-11-02T02:30:49;101742.78;;;13.23;70.12
48862;BME280;34681;49.188;-0.374;2022-11-02T02:33:45;101739.47;;;13.29;69.71
48862;BME280;34681;49.188;-0.374;2022-11-02T02:38:52;101748.72;;;12.98;70.60
48862;BME280;34681;49.188;-0.374;2022-11-02T02:41:42;101749.03;;;13.25;69.85
48862;BME280;34681;49.188;-0.374;2022-11-02T02:44:30;101751.38;;;12.78;70.74
48862;BME280;34681;49.188;-0.374;2022-11-02T02:47:07;101754.31;;;13.17;69.96
48862;BME280;34681;49.188;-0.374;2022-11-02T02:49:41;101748.81;;;13.17;70.09
48862;BME280;34681;49.188;-0.374;2022-11-02T02:52:09;101757.63;;;13.11;70.05
48862;BME280;34681;49.188;-0.374;2022-11-02T02:54:41;101761.06;;;13.03;70.27
48862;BME280;34681;49.188;-0.374;2022-11-02T02:57:12;101767.38;;;12.94;70.77
48862;BME280;34681;49.188;-0.374;2022-11-02T02:59:44;101767.41;;;13.04;70.08
48862;BME280;34681;49.188;-0.374;2022-11-02T03:02:22;101760.31;;;13.01;70.42
48862;BME280;34681;49.188;-0.374;2022-11-02T03:04:49;101753.56;;;13.15;70.03
48862;BME280;34681;49.188;-0.374;2022-11-02T03:07:21;101763.66;;;13.35;69.08
48862;BME280;34681;49.188;-0.374;2022-11-02T03:12:52;101770.66;;;13.18;69.37
48862;BME280;34681;49.188;-0.374;2022-11-02T03:15:25;101770.41;;;13.21;69.18
48862;BME280;34681;49.188;-0.374;2022-11-02T03:23:18;101787.88;;;12.90;70.10
48862;BME280;34681;49.188;-0.374;2022-11-02T03:28:48;101800.56;;;13.12;69.21
48862;BME280;34681;49.188;-0.374;2022-11-02T03:37:21;101799.38;;;13.26;68.67
48862;BME280;34681;49.188;-0.374;2022-11-02T03:39:49;101806.53;;;13.17;69.12
48862;BME280;34681;49.188;-0.374;2022-11-02T03:42:22;101805.31;;;13.40;67.90
48862;BME280;34681;49.188;-0.374;2022-11-02T03:44:50;101814.84;;;13.27;68.48
48862;BME280;34681;49.188;-0.374;2022-11-02T03:47:19;101816.94;;;13.44;67.77
48862;BME280;34681;49.188;-0.374;2022-11-02T03:49:46;101813.16;;;13.45;67.80
48862;BME280;34681;49.188;-0.374;2022-11-02T03:52:18;101819.00;;;13.52;67.26
48862;BME280;34681;49.188;-0.374;2022-11-02T03:54:52;101824.31;;;13.43;67.60
48862;BME280;34681;49.188;-0.374;2022-11-02T03:57:26;101832.56;;;13.43;67.51
48862;BME280;34681;49.188;-0.374;2022-11-02T04:00:09;101834.84;;;13.38;67.49
48862;BME280;34681;49.188;-0.374;2022-11-02T04:02:37;101840.63;;;13.35;67.82
48862;BME280;34681;49.188;-0.374;2022-11-02T04:05:04;101840.44;;;13.27;67.76
48862;BME280;34681;49.188;-0.374;2022-11-02T04:07:32;101847.81;;;13.27;68.11
48862;BME280;34681;49.188;-0.374;2022-11-02T04:10:19;101845.41;;;13.33;67.67
48862;BME280;34681;49.188;-0.374;2022-11-02T04:12:45;101849.56;;;13.28;67.80
48862;BME280;34681;49.188;-0.374;2022-11-02T04:15:29;101852.44;;;13.05;68.49
48862;BME280;34681;49.188;-0.374;2022-11-02T04:17:54;101850.31;;;13.09;68.22
48862;BME280;34681;49.188;-0.374;2022-11-02T04:20:38;101844.13;;;13.16;67.87
48862;BME280;34681;49.188;-0.374;2022-11-02T04:23:04;101852.00;;;13.00;68.70
48862;BME280;34681;49.188;-0.374;2022-11-02T04:25:52;101846.50;;;13.00;68.21
48862;BME280;34681;49.188;-0.374;2022-11-02T04:28:18;101854.59;;;13.02;68.21
48862;BME280;34681;49.188;-0.374;2022-11-02T04:30:43;101857.22;;;13.03;68.11
48862;BME280;34681;49.188;-0.374;2022-11-02T04:33:09;101847.09;;;13.04;68.04
48862;BME280;34681;49.188;-0.374;2022-11-02T04:35:52;101857.16;;;12.93;68.21
48862;BME280;34681;49.188;-0.374;2022-11-02T04:38:18;101851.63;;;12.84;68.48
48862;BME280;34681;49.188;-0.374;2022-11-02T04:41:02;101848.31;;;12.69;68.84
48862;BME280;34681;49.188;-0.374;2022-11-02T04:43:46;101858.81;;;12.64;69.20
48862;BME280;34681;49.188;-0.374;2022-11-02T04:46:11;101861.44;;;12.86;68.20
48862;BME280;34681;49.188;-0.374;2022-11-02T04:48:36;101858.97;;;12.83;68.41
48862;BME280;34681;49.188;-0.374;2022-11-02T04:51:02;101865.72;;;12.79;68.54
48862;BME280;34681;49.188;-0.374;2022-11-02T04:53:27;101875.25;;;12.75;68.98
48862;BME280;34681;49.188;-0.374;2022-11-02T04:55:52;101870.44;;;12.68;69.05
48862;BME280;34681;49.188;-0.374;2022-11-02T04:58:18;101874.19;;;12.67;69.01
48862;BME280;34681;49.188;-0.374;2022-11-02T05:00:43;101880.97;;;12.83;68.38
48862;BME280;34681;49.188;-0.374;2022-11-02T05:03:08;101876.56;;;12.81;68.47
48862;BME280;34681;49.188;-0.374;2022-11-02T05:05:34;101881.66;;;12.64;68.90
48862;BME280;34681;49.188;-0.374;2022-11-02T05:07:59;101876.56;;;12.81;68.31
48862;BME280;34681;49.188;-0.374;2022-11-02T05:10:24;101884.38;;;12.76;68.35
48862;BME280;34681;49.188;-0.374;2022-11-02T05:12:56;101884.22;;;12.77;68.34
48862;BME280;34681;49.188;-0.374;2022-11-02T05:15:22;101887.03;;;12.87;67.75
48862;BME280;34681;49.188;-0.374;2022-11-02T05:17:47;101891.06;;;12.83;67.74
48862;BME280;34681;49.188;-0.374;2022-11-02T05:20:13;101890.16;;;12.82;67.53
48862;BME280;34681;49.188;-0.374;2022-11-02T05:22:40;101896.94;;;12.78;67.59
48862;BME280;34681;49.188;-0.374;2022-11-02T05:25:07;101891.47;;;12.78;67.53
48862;BME280;34681;49.188;-0.374;2022-11-02T05:27:32;101894.34;;;12.77;67.38
48862;BME280;34681;49.188;-0.374;2022-11-02T05:29:58;101889.72;;;12.77;67.46
48862;BME280;34681;49.188;-0.374;2022-11-02T05:32:24;101898.75;;;12.68;67.69
48862;BME280;34681;49.188;-0.374;2022-11-02T05:34:50;101896.47;;;12.73;67.61
48862;BME280;34681;49.188;-0.374;2022-11-02T05:37:16;101894.28;;;12.67;67.65
48862;BME280;34681;49.188;-0.374;2022-11-02T05:39:41;101893.31;;;12.57;68.08
48862;BME280;34681;49.188;-0.374;2022-11-02T05:42:07;101895.31;;;12.55;68.05
48862;BME280;34681;49.188;-0.374;2022-11-02T05:44:32;101895.38;;;12.64;67.67
48862;BME280;34681;49.188;-0.374;2022-11-02T05:46:57;101891.31;;;12.59;67.92
48862;BME280;34681;49.188;-0.374;2022-11-02T05:49:23;101903.63;;;12.64;67.46
48862;BME280;34681;49.188;-0.374;2022-11-02T05:51:48;101907.03;;;12.57;67.88
48862;BME280;34681;49.188;-0.374;2022-11-02T05:54:13;101902.03;;;12.62;67.68
48862;BME280;34681;49.188;-0.374;2022-11-02T05:56:39;101899.88;;;12.65;67.62
48862;BME280;34681;49.188;-0.374;2022-11-02T05:59:04;101893.28;;;12.68;67.06
48862;BME280;34681;49.188;-0.374;2022-11-02T06:01:30;101897.94;;;12.56;67.66
48862;BME280;34681;49.188;-0.374;2022-11-02T06:03:55;101890.69;;;12.55;67.61
48862;BME280;34681;49.188;-0.374;2022-11-02T06:06:21;101888.47;;;12.49;67.90
48862;BME280;34681;49.188;-0.374;2022-11-02T06:08:46;101896.97;;;12.46;67.85
48862;BME280;34681;49.188;-0.374;2022-11-02T06:11:13;101894.97;;;12.48;67.87
48862;BME280;34681;49.188;-0.374;2022-11-02T06:13:39;101893.72;;;12.52;67.70
48862;BME280;34681;49.188;-0.374;2022-11-02T06:16:06;101898.72;;;12.47;67.68
48862;BME280;34681;49.188;-0.374;2022-11-02T06:18:35;101887.66;;;12.37;68.20
48862;BME280;34681;49.188;-0.374;2022-11-02T06:21:01;101889.53;;;12.37;68.10
48862;BME280;34681;49.188;-0.374;2022-11-02T06:23:27;101895.50;;;12.42;67.86
48862;BME280;34681;49.188;-0.374;2022-11-02T06:25:54;101896.38;;;12.43;67.74
48862;BME280;34681;49.188;-0.374;2022-11-02T06:28:21;101891.53;;;12.35;68.15
48862;BME280;34681;49.188;-0.374;2022-11-02T06:30:47;101892.13;;;12.38;67.93
48862;BME280;34681;49.188;-0.374;2022-11-02T06:33:14;101893.16;;;12.37;68.13
48862;BME280;34681;49.188;-0.374;2022-11-02T06:35:39;101895.75;;;12.39;68.02
48862;BME280;34681;49.188;-0.374;2022-11-02T06:38:08;101900.44;;;12.27;68.37
48862;BME280;34681;49.188;-0.374;2022-11-02T06:40:33;101899.78;;;12.24;68.80
48862;BME280;34681;49.188;-0.374;2022-11-02T06:42:59;101895.03;;;12.37;68.10
48862;BME280;34681;49.188;-0.374;2022-11-02T06:45:24;101887.06;;;12.34;68.13
48862;BME280;34681;49.188;-0.374;2022-11-02T06:47:50;101894.66;;;12.30;68.30
48862;BME280;34681;49.188;-0.374;2022-11-02T06:50:15;101889.81;;;12.34;68.17
48862;BME280;34681;49.188;-0.374;2022-11-02T06:52:45;101886.78;;;12.37;67.98
48862;BME280;34681;49.188;-0.374;2022-11-02T06:55:12;101893.56;;;12.33;68.02
48862;BME280;34681;49.188;-0.374;2022-11-02T06:57:38;101901.78;;;12.33;68.29
48862;BME280;34681;49.188;-0.374;2022-11-02T07:00:06;101895.66;;;12.29;68.51
48862;BME280;34681;49.188;-0.374;2022-11-02T07:02:32;101909.13;;;12.32;68.41
48862;BME280;34681;49.188;-0.374;2022-11-02T07:04:58;101905.72;;;12.40;68.47
48862;BME280;34681;49.188;-0.374;2022-11-02T07:07:23;101903.47;;;12.45;67.87
48862;BME280;34681;49.188;-0.374;2022-11-02T07:09:48;101898.06;;;12.55;67.88
48862;BME280;34681;49.188;-0.374;2022-11-02T07:12:14;101899.81;;;12.56;68.02
48862;BME280;34681;49.188;-0.374;2022-11-02T07:14:39;101898.56;;;12.60;67.86
48862;BME280;34681;49.188;-0.374;2022-11-02T07:17:05;101902.69;;;12.54;68.29
48862;BME280;34681;49.188;-0.374;2022-11-02T07:19:30;101903.25;;;12.37;68.73
48862;BME280;34681;49.188;-0.374;2022-11-02T07:21:56;101897.75;;;12.37;68.87
48862;BME280;34681;49.188;-0.374;2022-11-02T07:24:21;101898.56;;;12.60;68.11
48862;BME280;34681;49.188;-0.374;2022-11-02T07:26:48;101897.34;;;12.53;68.58
48862;BME280;34681;49.188;-0.374;2022-11-02T07:29:16;101896.91;;;12.57;68.68
48862;BME280;34681;49.188;-0.374;2022-11-02T07:31:42;101910.06;;;12.54;68.79
48862;BME280;34681;49.188;-0.374;2022-11-02T07:34:08;101907.91;;;12.57;68.79
48862;BME280;34681;49.188;-0.374;2022-11-02T07:36:34;101910.31;;;12.51;69.03
48862;BME280;34681;49.188;-0.374;2022-11-02T07:38:59;101907.34;;;12.75;68.46
48862;BME280;34681;49.188;-0.374;2022-11-02T07:41:25;101916.19;;;12.78;68.22
48862;BME280;34681;49.188;-0.374;2022-11-02T07:43:50;101922.41;;;13.01;67.59
48862;BME280;34681;49.188;-0.374;2022-11-02T07:46:15;101923.03;;;12.84;68.26
48862;BME280;34681;49.188;-0.374;2022-11-02T07:48:41;101918.19;;;12.76;68.58
48862;BME280;34681;49.188;-0.374;2022-11-02T07:51:06;101916.25;;;12.88;68.21
48862;BME280;34681;49.188;-0.374;2022-11-02T07:53:33;101916.59;;;12.94;68.33
48862;BME280;34681;49.188;-0.374;2022-11-02T07:55:59;101912.03;;;13.05;68.28
48862;BME280;34681;49.188;-0.374;2022-11-02T07:58:25;101922.97;;;13.16;67.65
48862;BME280;34681;49.188;-0.374;2022-11-02T08:00:51;101917.84;;;13.11;68.17
48862;BME280;34681;49.188;-0.374;2022-11-02T08:03:18;101925.50;;;13.29;67.86
48862;BME280;34681;49.188;-0.374;2022-11-02T08:05:44;101924.44;;;13.41;67.36
48862;BME280;34681;49.188;-0.374;2022-11-02T08:08:12;101923.16;;;13.45;67.52
48862;BME280;34681;49.188;-0.374;2022-11-02T08:10:38;101923.72;;;13.48;67.85
48862;BME280;34681;49.188;-0.374;2022-11-02T08:13:04;101930.13;;;13.49;67.78
48862;BME280;34681;49.188;-0.374;2022-11-02T08:15:30;101926.41;;;14.00;66.81
48862;BME280;34681;49.188;-0.374;2022-11-02T08:20:37;101920.00;;;14.59;65.05
48862;BME280;34681;49.188;-0.374;2022-11-02T08:23:03;101931.91;;;14.50;65.51
48862;BME280;34681;49.188;-0.374;2022-11-02T08:25:30;101921.91;;;14.58;65.46
48862;BME280;34681;49.188;-0.374;2022-11-02T08:27:59;101932.47;;;14.53;65.37
48862;BME280;34681;49.188;-0.374;2022-11-02T08:30:26;101930.75;;;14.81;64.82
48862;BME280;34681;49.188;-0.374;2022-11-02T08:32:53;101938.53;;;16.09;61.53
48862;BME280;34681;49.188;-0.374;2022-11-02T08:35:18;101938.28;;;16.47;60.22
48862;BME280;34681;49.188;-0.374;2022-11-02T08:37:51;101932.03;;;15.63;62.48
48862;BME280;34681;49.188;-0.374;2022-11-02T08:40:26;101933.47;;;15.01;63.83
48862;BME280;34681;49.188;-0.374;2022-11-02T08:42:59;101945.22;;;14.54;65.36
48862;BME280;34681;49.188;-0.374;2022-11-02T08:45:26;101945.66;;;14.50;66.09
48862;BME280;34681;49.188;-0.374;2022-11-02T08:47:51;101930.88;;;14.70;65.81
48862;BME280;34681;49.188;-0.374;2022-11-02T08:50:19;101924.63;;;15.07;64.94
48862;BME280;34681;49.188;-0.374;2022-11-02T08:56:16;101925.59;;;15.82;63.63
48862;BME280;34681;49.188;-0.374;2022-11-02T08:58:41;101926.19;;;16.03;62.89
48862;BME280;34681;49.188;-0.374;2022-11-02T09:01:07;101928.34;;;16.09;62.08
48862;BME280;34681;49.188;-0.374;2022-11-02T09:03:32;101936.03;;;15.78;62.79
48862;BME280;34681;49.188;-0.374;2022-11-02T09:05:59;101938.00;;;15.58;63.49
48862;BME280;34681;49.188;-0.374;2022-11-02T09:08:28;101935.28;;;15.49;63.82
48862;BME280;34681;49.188;-0.374;2022-11-02T09:10:57;101932.19;;;15.61;63.71
48862;BME280;34681;49.188;-0.374;2022-11-02T09:13:23;101934.69;;;15.92;62.96
48862;BME280;34681;49.188;-0.374;2022-11-02T09:15:54;101931.50;;;15.87;62.88
48862;BME280;34681;49.188;-0.374;2022-11-02T09:18:20;101925.22;;;15.57;63.75
48862;BME280;34681;49.188;-0.374;2022-11-02T09:20:46;101921.72;;;15.55;63.80
48862;BME280;34681;49.188;-0.374;2022-11-02T09:23:16;101924.56;;;15.83;63.14
48862;BME280;34681;49.188;-0.374;2022-11-02T09:25:42;101928.41;;;15.53;64.03
48862;BME280;34681;49.188;-0.374;2022-11-02T09:28:08;101924.41;;;15.37;64.36
48862;BME280;34681;49.188;-0.374;2022-11-02T09:30:33;101920.84;;;15.55;64.18
48862;BME280;34681;49.188;-0.374;2022-11-02T09:33:01;101921.47;;;15.39;64.46
48862;BME280;34681;49.188;-0.374;2022-11-02T09:35:30;101922.53;;;15.28;64.87
48862;BME280;34681;49.188;-0.374;2022-11-02T09:37:55;101918.50;;;15.13;65.69
48862;BME280;34681;49.188;-0.374;2022-11-02T09:40:23;101919.84;;;14.99;65.68
48862;BME280;34681;49.188;-0.374;2022-11-02T09:43:02;101922.63;;;14.99;65.79
48862;BME280;34681;49.188;-0.374;2022-11-02T09:45:32;101923.75;;;15.16;65.67
48862;BME280;34681;49.188;-0.374;2022-11-02T09:48:10;101921.09;;;15.34;65.12
48862;BME280;34681;49.188;-0.374;2022-11-02T09:51:14;101920.41;;;15.12;65.74
48862;BME280;34681;49.188;-0.374;2022-11-02T09:56:40;101910.97;;;15.05;66.41
48862;BME280;34681;49.188;-0.374;2022-11-02T09:59:18;101914.84;;;15.22;66.45
48862;BME280;34681;49.188;-0.374;2022-11-02T10:01:56;101912.97;;;15.32;66.03
48862;BME280;34681;49.188;-0.374;2022-11-02T10:07:17;101914.50;;;15.44;66.11
48862;BME280;34681;49.188;-0.374;2022-11-02T10:09:53;101906.66;;;15.50;66.21
48862;BME280;34681;49.188;-0.374;2022-11-02T10:15:10;101911.63;;;15.36;66.77
48862;BME280;34681;49.188;-0.374;2022-11-02T10:17:39;101909.84;;;15.45;66.67
48862;BME280;34681;49.188;-0.374;2022-11-02T10:20:15;101903.19;;;15.48;66.74
48862;BME280;34681;49.188;-0.374;2022-11-02T10:22:47;101901.66;;;15.72;66.04
48862;BME280;34681;49.188;-0.374;2022-11-02T10:25:14;101901.97;;;15.69;66.18
48862;BME280;34681;49.188;-0.374;2022-11-02T10:27:49;101898.06;;;15.62;67.10
48862;BME280;34681;49.188;-0.374;2022-11-02T10:30:44;101899.88;;;15.81;66.59
48862;BME280;34681;49.188;-0.374;2022-11-02T10:33:13;101888.16;;;15.97;65.95
48862;BME280;34681;49.188;-0.374;2022-11-02T10:51:41;101872.03;;;16.20;65.55
48862;BME280;34681;49.188;-0.374;2022-11-02T10:54:12;101867.78;;;16.25;65.35
48862;BME280;34681;49.188;-0.374;2022-11-02T10:56:40;101860.13;;;16.37;64.92
48862;BME280;34681;49.188;-0.374;2022-11-02T10:59:13;101859.25;;;16.37;65.26
48862;BME280;34681;49.188;-0.374;2022-11-02T11:04:25;101840.41;;;16.32;64.96
48862;BME280;34681;49.188;-0.374;2022-11-02T11:06:50;101850.81;;;16.38;65.20
48862;BME280;34681;49.188;-0.374;2022-11-02T11:09:22;101843.88;;;16.52;64.82
48862;BME280;34681;49.188;-0.374;2022-11-02T11:11:52;101833.00;;;16.33;64.38
48862;BME280;34681;49.188;-0.374;2022-11-02T11:14:19;101840.50;;;16.40;63.72
48862;BME280;34681;49.188;-0.374;2022-11-02T11:16:49;101829.91;;;16.36;64.47
48862;BME280;34681;49.188;-0.374;2022-11-02T11:21:49;101828.78;;;16.28;64.44
48862;BME280;34681;49.188;-0.374;2022-11-02T11:26:45;101810.31;;;16.29;64.36
48862;BME280;34681;49.188;-0.374;2022-11-02T11:29:22;101810.19;;;16.31;64.45
48862;BME280;34681;49.188;-0.374;2022-11-02T11:31:48;101805.34;;;16.50;63.80
48862;BME280;34681;49.188;-0.374;2022-11-02T11:34:26;101800.78;;;16.41;63.82
48862;BME280;34681;49.188;-0.374;2022-11-02T11:36:52;101796.13;;;16.42;63.75
48862;BME280;34681;49.188;-0.374;2022-11-02T11:39:29;101786.56;;;16.36;63.42
48862;BME280;34681;49.188;-0.374;2022-11-02T11:41:56;101780.03;;;16.55;63.02
48862;BME280;34681;49.188;-0.374;2022-11-02T11:44:22;101779.91;;;16.65;62.91
48862;BME280;34681;49.188;-0.374;2022-11-02T11:46:51;101778.81;;;16.57;62.61
48862;BME280;34681;49.188;-0.374;2022-11-02T11:49:33;101768.31;;;16.61;63.07
48862;BME280;34681;49.188;-0.374;2022-11-02T11:52:00;101756.31;;;16.70;63.06
48862;BME280;34681;49.188;-0.374;2022-11-02T11:54:30;101765.91;;;16.84;62.44
48862;BME280;34681;49.188;-0.374;2022-11-02T11:57:32;101756.47;;;16.69;62.88
48862;BME280;34681;49.188;-0.374;2022-11-02T12:00:02;101754.47;;;16.79;62.87
48862;BME280;34681;49.188;-0.374;2022-11-02T12:03:04;101747.44;;;16.84;62.98
48862;BME280;34681;49.188;-0.374;2022-11-02T12:05:33;101732.41;;;16.87;62.80
48862;BME280;34681;49.188;-0.374;2022-11-02T12:08:34;101742.38;;;17.06;61.42
48862;BME280;34681;49.188;-0.374;2022-11-02T12:11:16;101732.44;;;16.95;62.41
48862;BME280;34681;49.188;-0.374;2022-11-02T12:16:42;101729.28;;;17.16;61.10
48862;BME280;34681;49.188;-0.374;2022-11-02T12:27:12;101702.16;;;17.78;59.75
48862;BME280;34681;49.188;-0.374;2022-11-02T12:30:12;101696.72;;;17.52;60.12
48862;BME280;34681;49.188;-0.374;2022-11-02T12:35:49;101687.38;;;17.53;59.79
48862;BME280;34681;49.188;-0.374;2022-11-02T12:38:38;101678.59;;;17.66;59.95
48862;BME280;34681;49.188;-0.374;2022-11-02T12:41:11;101680.91;;;17.95;59.47
48862;BME280;34681;49.188;-0.374;2022-11-02T12:43:46;101666.19;;;17.86;59.72
48862;BME280;34681;49.188;-0.374;2022-11-02T12:51:39;101639.38;;;17.87;59.59
48862;BME280;34681;49.188;-0.374;2022-11-02T12:54:11;101644.84;;;17.62;60.37
48862;BME280;34681;49.188;-0.374;2022-11-02T12:56:44;101632.78;;;17.63;60.03
48862;BME280;34681;49.188;-0.374;2022-11-02T12:59:23;101623.59;;;17.55;60.32
48862;BME280;34681;49.188;-0.374;2022-11-02T13:01:54;101627.28;;;17.80;60.07
48862;BME280;34681;49.188;-0.374;2022-11-02T13:04:28;101622.75;;;17.71;60.47
48862;BME280;34681;49.188;-0.374;2022-11-02T13:07:04;101625.69;;;17.93;60.33
48862;BME280;34681;49.188;-0.374;2022-11-02T13:10:35;101623.78;;;17.94;59.32
48862;BME280;34681;49.188;-0.374;2022-11-02T13:13:16;101620.16;;;17.93;58.72
48862;BME280;34681;49.188;-0.374;2022-11-02T13:26:30;101618.97;;;17.96;58.70
48862;BME280;34681;49.188;-0.374;2022-11-02T13:46:15;101587.59;;;18.12;58.24
48862;BME280;34681;49.188;-0.374;2022-11-02T13:51:38;101570.94;;;18.28;58.37
48862;BME280;34681;49.188;-0.374;2022-11-02T13:54:24;101556.47;;;18.02;58.86
48862;BME280;34681;49.188;-0.374;2022-11-02T13:56:54;101557.03;;;17.81;59.79
48862;BME280;34681;49.188;-0.374;2022-11-02T13:59:40;101559.06;;;17.95;59.54
48862;BME280;34681;49.188;-0.374;2022-11-02T14:02:12;101563.22;;;17.99;59.54
48862;BME280;34681;49.188;-0.374;2022-11-02T14:04:41;101583.66;;;17.98;60.03
48862;BME280;34681;49.188;-0.374;2022-11-02T14:07:21;101553.66;;;18.18;59.21
48862;BME280;34681;49.188;-0.374;2022-11-02T14:09:48;101556.63;;;18.08;59.37
48862;BME280;34681;49.188;-0.374;2022-11-02T14:14:42;101542.59;;;18.10;59.32
48862;BME280;34681;49.188;-0.374;2022-11-02T14:17:09;101543.44;;;18.27;58.96
48862;BME280;34681;49.188;-0.374;2022-11-02T14:22:13;101528.25;;;18.06;59.20
48862;BME280;34681;49.188;-0.374;2022-11-02T14:29:49;101531.56;;;17.69;60.47
48862;BME280;34681;49.188;-0.374;2022-11-02T14:35:14;101516.88;;;17.52;60.49
48862;BME280;34681;49.188;-0.374;2022-11-02T14:48:43;101504.09;;;17.27;61.08
48862;BME280;34681;49.188;-0.374;2022-11-02T14:51:20;101505.50;;;17.39;60.83
48862;BME280;34681;49.188;-0.374;2022-11-02T14:53:47;101498.72;;;17.33;61.19
48862;BME280;34681;49.188;-0.374;2022-11-02T14:56:13;101488.19;;;17.29;61.02
48862;BME280;34681;49.188;-0.374;2022-11-02T14:58:46;101489.03;;;17.37;60.76
48862;BME280;34681;49.188;-0.374;2022-11-02T15:01:13;101479.53;;;17.48;60.79
48862;BME280;34681;49.188;-0.374;2022-11-02T15:03:40;101484.22;;;17.39;60.87
48862;BME280;34681;49.188;-0.374;2022-11-02T15:08:59;101473.84;;;17.41;60.93
48862;BME280;34681;49.188;-0.374;2022-11-02T15:11:50;101483.34;;;17.47;60.58
48862;BME280;34681;49.188;-0.374;2022-11-02T15:19:40;101487.84;;;17.32;61.51
48862;BME280;34681;49.188;-0.374;2022-11-02T15:22:49;101483.19;;;17.16;62.47